Time;durP1;ratioP1;P1;durP2;ratioP2;P2;SDS_P1;SDS_P2;PMS_P1;PMS_P2;Temp;Humidity;BMP_temperature;BMP_pressure;BME280_temperature;BME280_humidity;BME280_pressure;Samples;Min_cycle;Max_cycle;Signal;HPM_P1;HPM_P2
2021/05/30 08:26:43;;;;;;;12.70;6.55;;;12.30;99.90;;;;;;4617595;23;20057;-71
2021/05/30 08:29:09;;;;;;;13.32;6.15;;;12.50;99.90;;;;;;5023568;28;20504;-69
2021/05/30 08:31:41;;;;;;;12.05;6.13;;;12.60;99.90;;;;;;5025453;28;20045;-69
2021/05/30 08:34:07;;;;;;;10.70;5.55;;;12.80;99.90;;;;;;5026687;28;20121;-73
2021/05/30 08:36:32;;;;;;;21.98;6.50;;;12.80;99.90;;;;;;5027313;28;20037;-72
2021/05/30 08:38:58;;;;;;;13.45;5.80;;;12.90;99.90;;;;;;5027005;28;20041;-73
2021/05/30 08:41:23;;;;;;;20.77;6.68;;;13.00;99.90;;;;;;5026831;28;20026;-72
2021/05/30 08:43:49;;;;;;;9.05;4.50;;;13.00;99.90;;;;;;5027194;28;20057;-69
2021/05/30 08:46:14;;;;;;;13.55;5.13;;;13.10;99.90;;;;;;5025723;28;20077;-76
2021/05/30 08:48:40;;;;;;;13.48;5.15;;;13.20;99.90;;;;;;5025087;28;20029;-71
2021/05/30 08:51:11;;;;;;;8.35;4.45;;;13.20;99.90;;;;;;5026851;28;20030;-72
2021/05/30 08:53:41;;;;;;;11.43;5.88;;;13.30;99.90;;;;;;5019710;28;20407;-72
2021/05/30 08:56:08;;;;;;;13.05;5.95;;;13.50;99.90;;;;;;5016765;28;20042;-73
2021/05/30 08:58:41;;;;;;;10.80;4.47;;;13.60;99.90;;;;;;5026067;28;20065;-73
2021/05/30 09:01:13;;;;;;;12.00;6.03;;;13.70;99.90;;;;;;5026823;28;20025;-72
2021/05/30 09:04:06;;;;;;;8.77;4.32;;;13.90;99.90;;;;;;5026792;28;20022;-75
2021/05/30 09:06:33;;;;;;;16.00;5.82;;;14.00;99.90;;;;;;5009697;28;20030;-73
2021/05/30 09:09:00;;;;;;;9.07;4.68;;;14.20;99.90;;;;;;5011870;28;20033;-73
2021/05/30 09:11:48;;;;;;;7.30;4.47;;;14.20;99.90;;;;;;5023491;28;20033;-74
2021/05/30 09:14:18;;;;;;;13.75;4.57;;;14.20;99.90;;;;;;5023310;28;20030;-74
2021/05/30 09:16:54;;;;;;;11.30;4.60;;;14.30;99.90;;;;;;5006001;28;20026;-73
2021/05/30 09:19:48;;;;;;;15.20;5.18;;;14.40;99.90;;;;;;5006750;28;20084;-71
2021/05/30 09:22:23;;;;;;;9.85;5.13;;;14.60;99.90;;;;;;5006753;28;20037;-73
2021/05/30 09:24:52;;;;;;;20.52;5.47;;;14.70;99.90;;;;;;5006928;28;20030;-72
2021/05/30 09:27:18;;;;;;;8.75;4.47;;;14.90;99.90;;;;;;5004956;28;20079;-73
2021/05/30 09:29:44;;;;;;;12.60;5.63;;;14.90;99.90;;;;;;5006209;28;20454;-74
2021/05/30 09:32:10;;;;;;;10.20;4.55;;;15.10;99.90;;;;;;5006866;28;20031;-73
2021/05/30 09:34:38;;;;;;;8.77;3.55;;;15.10;99.90;;;;;;5006704;28;20118;-72
2021/05/30 09:37:06;;;;;;;11.75;4.03;;;15.10;99.90;;;;;;5006559;28;20046;-73
2021/05/30 09:39:43;;;;;;;13.32;4.80;;;15.10;99.90;;;;;;5006955;28;20031;-73
2021/05/30 09:42:33;;;;;;;12.00;4.30;;;15.00;99.90;;;;;;5006783;28;20033;-73
2021/05/30 09:45:00;;;;;;;8.25;3.95;;;15.00;99.90;;;;;;5006128;28;20125;-75
2021/05/30 09:47:37;;;;;;;9.25;4.20;;;15.10;99.90;;;;;;5011817;28;20030;-73
2021/05/30 09:50:08;;;;;;;12.15;4.30;;;15.30;99.90;;;;;;5016470;28;20038;-74
2021/05/30 09:52:48;;;;;;;12.60;4.28;;;15.40;99.90;;;;;;5013350;28;20030;-72
2021/05/30 09:55:28;;;;;;;10.02;4.70;;;15.40;99.90;;;;;;5019258;28;20038;-72
2021/05/30 09:58:15;;;;;;;16.27;4.88;;;15.40;99.90;;;;;;5013017;28;20022;-72
2021/05/30 10:00:43;;;;;;;11.57;4.07;;;15.60;99.90;;;;;;5011830;28;20036;-71
2021/05/30 10:03:10;;;;;;;9.38;3.67;;;15.70;99.90;;;;;;5014162;28;20065;-71
2021/05/30 10:05:37;;;;;;;10.00;4.70;;;15.80;99.90;;;;;;5006040;28;20061;-72
2021/05/30 10:08:04;;;;;;;13.32;4.32;;;15.80;99.90;;;;;;5006445;28;20029;-73
2021/05/30 10:10:32;;;;;;;7.10;3.70;;;15.90;99.90;;;;;;5005545;28;20045;-71
2021/05/30 10:13:01;;;;;;;6.95;3.72;;;16.00;99.90;;;;;;5020556;28;20513;-72
2021/05/30 10:15:27;;;;;;;9.52;4.43;;;16.10;99.90;;;;;;5006749;28;20057;-72
2021/05/30 10:17:54;;;;;;;11.27;4.28;;;16.20;99.90;;;;;;5017576;28;20031;-72
2021/05/30 10:20:23;;;;;;;8.95;4.25;;;16.40;99.90;;;;;;5005318;28;20022;-70
2021/05/30 10:22:57;;;;;;;6.00;3.42;;;16.50;99.90;;;;;;5004264;28;20090;-71
2021/05/30 10:25:34;;;;;;;5.93;3.33;;;16.80;99.90;;;;;;5005174;28;20045;-71
2021/05/30 10:28:16;;;;;;;11.68;4.55;;;16.90;99.90;;;;;;5004937;28;20053;-72
2021/05/30 10:30:48;;;;;;;7.28;3.88;;;17.10;99.90;;;;;;5020539;28;20035;-73
2021/05/30 10:33:26;;;;;;;9.48;3.97;;;17.30;99.90;;;;;;5005547;28;20023;-72
2021/05/30 10:35:55;;;;;;;9.52;4.43;;;17.40;99.90;;;;;;5004764;28;20049;-72
2021/05/30 10:38:43;;;;;;;6.18;3.75;;;17.60;99.90;;;;;;5005111;28;20023;-72
2021/05/30 10:41:20;;;;;;;9.50;3.58;;;17.90;99.90;;;;;;5005025;28;20026;-72
2021/05/30 10:43:47;;;;;;;6.93;3.63;;;18.20;99.90;;;;;;5003745;28;20097;-71
2021/05/30 10:46:13;;;;;;;6.63;3.28;;;18.40;99.90;;;;;;5005293;28;20061;-73
2021/05/30 10:48:41;;;;;;;12.52;3.67;;;18.60;99.90;;;;;;5005098;28;20026;-72
2021/05/30 10:51:33;;;;;;;4.88;2.95;;;18.80;99.90;;;;;;5005177;28;20115;-72
2021/05/30 10:54:12;;;;;;;7.88;3.28;;;18.90;99.90;;;;;;5004857;28;20034;-70
2021/05/30 10:56:46;;;;;;;7.35;3.58;;;19.00;99.90;;;;;;5005249;28;20041;-70
2021/05/30 10:59:14;;;;;;;9.07;2.97;;;19.10;99.90;;;;;;5004711;28;20058;-73
2021/05/30 11:01:43;;;;;;;4.65;2.97;;;19.20;99.90;;;;;;5020266;28;20022;-73
2021/05/30 11:04:33;;;;;;;7.68;3.00;;;19.50;99.90;;;;;;5009332;28;20113;-71
2021/05/30 11:07:01;;;;;;;6.30;2.45;;;19.70;99.90;;;;;;5021593;28;20474;-72
2021/05/30 11:09:53;;;;;;;3.92;2.40;;;19.90;99.90;;;;;;5005158;28;20404;-72
2021/05/30 11:12:20;;;;;;;6.07;2.70;;;20.10;99.90;;;;;;5004385;28;20113;-71
2021/05/30 11:17:40;;;;;;;4.18;2.28;;;20.20;99.90;;;;;;5005215;28;20439;-71
2021/05/30 11:20:08;;;;;;;4.50;2.22;;;20.50;99.90;;;;;;5004863;28;20031;-73
2021/05/30 11:22:46;;;;;;;6.25;2.30;;;20.80;99.90;;;;;;5005197;28;20079;-74
2021/05/30 11:25:15;;;;;;;6.50;2.92;;;20.90;99.90;;;;;;5004660;28;20058;-74
2021/05/30 11:28:11;;;;;;;4.07;2.33;;;21.00;99.90;;;;;;5004498;28;20136;-73
2021/05/30 11:30:46;;;;;;;6.05;3.00;;;21.20;99.90;;;;;;4996362;28;20042;-72
2021/05/30 11:33:22;;;;;;;7.55;2.75;;;21.10;99.90;;;;;;5004859;28;20054;-71
2021/05/30 11:35:55;;;;;;;4.00;2.67;;;20.90;99.90;;;;;;5004669;28;20066;-72
2021/05/30 11:38:51;;;;;;;6.15;2.80;;;21.00;99.90;;;;;;5005054;28;20023;-73
2021/05/30 11:41:30;;;;;;;9.02;3.60;;;21.30;99.90;;;;;;5004354;28;20482;-73
2021/05/30 11:44:17;;;;;;;4.93;2.97;;;21.60;99.90;;;;;;5003361;28;20057;-70
2021/05/30 11:46:52;;;;;;;4.10;2.60;;;21.70;99.90;;;;;;5004816;28;20039;-71
2021/05/30 11:49:34;;;;;;;7.30;3.60;;;21.80;99.90;;;;;;5004383;28;20471;-69
2021/05/30 11:52:02;;;;;;;5.00;3.10;;;21.80;99.90;;;;;;5004791;28;20518;-72
2021/05/30 11:54:52;;;;;;;9.73;3.33;;;21.80;99.90;;;;;;5022669;28;20026;-73
2021/05/30 11:57:24;;;;;;;7.55;3.00;;;21.90;99.90;;;;;;5015193;28;20054;-73
2021/05/30 11:59:58;;;;;;;3.75;2.42;;;22.10;99.90;;;;;;5006497;28;20026;-73
2021/05/30 12:02:37;;;;;;;7.90;3.58;;;22.50;99.90;;;;;;5008096;28;20037;-72
2021/05/30 12:05:16;;;;;;;3.13;2.10;;;22.80;99.90;;;;;;5006128;28;20050;-72
2021/05/30 12:07:42;;;;;;;4.72;2.65;;;22.80;99.90;;;;;;5007765;28;20030;-74
2021/05/30 12:10:12;;;;;;;8.10;2.70;;;22.80;99.90;;;;;;5007084;28;20033;-73
2021/05/30 12:12:46;;;;;;;3.70;2.35;;;22.80;99.90;;;;;;5006620;28;20090;-73
2021/05/30 12:15:18;;;;;;;4.35;2.85;;;23.10;99.90;;;;;;5023364;28;20054;-71
2021/05/30 12:17:56;;;;;;;5.22;2.88;;;23.40;99.90;;;;;;5007874;28;20023;-72
2021/05/30 12:20:24;;;;;;;3.95;2.55;;;23.20;99.90;;;;;;5008248;28;20030;-73
2021/05/30 12:22:49;;;;;;;3.80;2.47;;;23.20;99.90;;;;;;5007796;28;20053;-73
2021/05/30 12:25:17;;;;;;;5.63;2.13;;;23.60;99.90;;;;;;5007808;28;20046;-78
2021/05/30 12:27:42;;;;;;;2.38;1.77;;;23.70;99.90;;;;;;5006570;28;20105;-73
2021/05/30 12:30:11;;;;;;;3.33;1.90;;;23.70;99.90;;;;;;5007194;28;20026;-73
2021/05/30 12:32:37;;;;;;;3.78;1.85;;;23.90;99.90;;;;;;5007285;28;20089;-73
2021/05/30 12:35:04;;;;;;;3.42;1.67;;;24.10;99.90;;;;;;5008125;28;20189;-73
2021/05/30 12:37:41;;;;;;;3.15;1.17;;;24.30;99.90;;;;;;5007419;28;20089;-72
2021/05/30 12:40:09;;;;;;;3.22;1.55;;;24.60;99.90;;;;;;5007771;28;20030;-72
2021/05/30 12:42:36;;;;;;;3.42;1.83;;;24.60;99.90;;;;;;5007571;28;20030;-72
2021/05/30 12:45:10;;;;;;;4.95;1.63;;;24.60;99.90;;;;;;5007416;28;20488;-72
2021/05/30 12:47:42;;;;;;;;;;;24.70;99.90;;;;;;5023179;28;20398;-75
2021/05/30 12:50:13;;;;;;;1.75;1.30;;;24.90;99.90;;;;;;5006440;28;19989;-70
2021/05/30 12:52:53;;;;;;;4.10;2.08;;;24.80;99.90;;;;;;5006382;28;20022;-72
2021/05/30 12:55:34;;;;;;;2.75;1.40;;;24.60;99.90;;;;;;5006733;28;20034;-73
2021/05/30 12:58:00;;;;;;;4.65;2.00;;;24.70;99.90;;;;;;5006461;28;20061;-71
2021/05/30 13:00:33;;;;;;;3.33;1.75;;;24.70;99.90;;;;;;5007165;28;20026;-75
2021/05/30 13:03:01;;;;;;;2.95;1.63;;;24.70;99.90;;;;;;5007143;28;20117;-73
2021/05/30 13:05:36;;;;;;;4.15;1.95;;;24.70;99.90;;;;;;5006811;28;20109;-73
2021/05/30 13:08:14;;;;;;;3.58;2.00;;;24.50;99.90;;;;;;5022347;28;20034;-71
2021/05/30 13:10:57;;;;;;;2.88;1.63;;;24.50;99.90;;;;;;5006291;28;20034;-72
2021/05/30 13:13:26;;;;;;;2.67;1.95;;;24.50;99.90;;;;;;5006654;28;20030;-73
2021/05/30 13:15:51;;;;;;;3.60;2.05;;;24.50;99.90;;;;;;5006926;28;20034;-73
2021/05/30 13:18:17;;;;;;;4.57;2.67;;;24.50;99.90;;;;;;5006760;28;20027;-72
2021/05/30 13:20:45;;;;;;;8.48;2.22;;;24.60;99.90;;;;;;5006940;28;20037;-72
2021/05/30 13:23:27;;;;;;;3.35;2.08;;;24.80;99.90;;;;;;5006973;28;20057;-73
2021/05/30 13:26:09;;;;;;;3.15;1.98;;;25.00;99.90;;;;;;5006221;28;20038;-72
2021/05/30 13:28:42;;;;;;;2.15;1.48;;;25.20;99.90;;;;;;5006744;28;20085;-73
2021/05/30 13:31:08;;;;;;;9.10;2.20;;;25.40;99.90;;;;;;5006872;28;20022;-73
2021/05/30 13:33:36;;;;;;;7.70;2.65;;;25.40;99.90;;;;;;5006522;28;20606;-73
2021/05/30 13:36:03;;;;;;;4.60;2.08;;;25.30;99.90;;;;;;5006592;28;20030;-73
2021/05/30 13:38:29;;;;;;;4.45;2.10;;;25.50;99.90;;;;;;5004758;28;20049;-75
2021/05/30 13:40:57;;;;;;;7.78;2.22;;;25.50;99.90;;;;;;5007200;28;20038;-73
2021/05/30 13:43:26;;;;;;;6.60;2.65;;;25.50;99.90;;;;;;5024185;28;20116;-72
2021/05/30 13:45:52;;;;;;;4.13;2.13;;;25.60;99.90;;;;;;5013131;28;20034;-72
2021/05/30 13:48:18;;;;;;;5.57;2.05;;;25.90;99.90;;;;;;5021074;28;20030;-70
2021/05/30 13:50:47;;;;;;;4.43;2.42;;;26.00;99.90;;;;;;5006082;28;20378;-72
2021/05/30 13:53:13;;;;;;;6.00;2.08;;;26.00;99.90;;;;;;5006190;28;20109;-73
2021/05/30 13:55:40;;;;;;;6.47;2.40;;;26.00;99.90;;;;;;5006494;28;20457;-72
2021/05/30 13:58:07;;;;;;;5.80;2.28;;;26.10;99.90;;;;;;5006311;28;20109;-71
2021/05/30 14:00:34;;;;;;;4.78;2.70;;;25.90;99.90;;;;;;5005818;28;20072;-73
2021/05/30 14:03:01;;;;;;;12.50;2.67;;;25.90;99.90;;;;;;5006030;28;20040;-73
2021/05/30 14:05:27;;;;;;;5.03;2.00;;;26.10;99.90;;;;;;5005953;28;20073;-70
2021/05/30 14:07:52;;;;;;;4.85;2.15;;;26.10;99.90;;;;;;5005928;28;20022;-73
2021/05/30 14:10:18;;;;;;;3.47;2.20;;;26.30;99.90;;;;;;5006454;28;20037;-73
2021/05/30 14:12:44;;;;;;;4.60;1.95;;;26.50;99.90;;;;;;5005799;28;20038;-73
2021/05/30 14:15:11;;;;;;;4.88;2.20;;;26.60;99.90;;;;;;5005697;28;20086;-73
2021/05/30 14:17:38;;;;;;;2.60;1.73;;;26.40;99.90;;;;;;5006154;28;20034;-73
2021/05/30 14:20:06;;;;;;;3.95;1.90;;;26.20;99.90;;;;;;5005764;28;20026;-70
2021/05/30 14:22:35;;;;;;;5.82;1.80;;;26.20;99.90;;;;;;5005060;28;20030;-70
2021/05/30 14:25:00;;;;;;;4.30;2.28;;;26.10;99.90;;;;;;5005355;28;20053;-71
2021/05/30 14:27:26;;;;;;;6.10;2.15;;;25.90;99.90;;;;;;5004948;28;20050;-71
2021/05/30 14:29:52;;;;;;;2.60;1.80;;;25.90;99.90;;;;;;5005142;28;20086;-71
2021/05/30 14:32:18;;;;;;;4.28;1.90;;;25.90;99.90;;;;;;5004423;28;20041;-73
2021/05/30 14:34:44;;;;;;;5.85;2.17;;;26.00;99.90;;;;;;5005464;28;20034;-74
2021/05/30 14:37:10;;;;;;;3.05;1.70;;;25.90;99.90;;;;;;5020437;28;20053;-72
2021/05/30 14:39:36;;;;;;;3.00;1.40;;;25.70;99.90;;;;;;5005619;28;20061;-70
2021/05/30 14:42:03;;;;;;;5.00;1.65;;;25.70;99.90;;;;;;5005326;28;20027;-71
2021/05/30 14:44:29;;;;;;;6.07;2.17;;;25.50;99.90;;;;;;5005125;28;20026;-69
2021/05/30 14:46:54;;;;;;;7.93;1.80;;;25.50;99.90;;;;;;5005299;28;20383;-72
2021/05/30 14:49:20;;;;;;;4.25;1.52;;;25.40;99.70;;;;;;5003666;28;20034;-70
2021/05/30 14:51:46;;;;;;;8.02;1.48;;;25.40;99.90;;;;;;5005272;28;20386;-74
2021/05/30 14:54:12;;;;;;;3.85;1.75;;;25.40;99.90;;;;;;5005293;28;20470;-75
2021/05/30 14:56:39;;;;;;;2.92;2.10;;;25.30;99.90;;;;;;5004894;28;20051;-71
2021/05/30 14:59:05;;;;;;;5.85;2.20;;;25.50;99.90;;;;;;5011296;28;20080;-73
2021/05/30 15:01:31;;;;;;;5.07;2.15;;;25.60;99.90;;;;;;5019443;28;20041;-74
2021/05/30 15:03:57;;;;;;;4.78;2.30;;;25.90;99.90;;;;;;5013110;28;20037;-71
2021/05/30 15:06:23;;;;;;;5.85;2.75;;;26.00;98.20;;;;;;5014903;28;20038;-73
2021/05/30 15:11:28;;;;;;;6.82;2.00;;;25.80;99.10;;;;;;5023062;28;20065;-73
2021/05/30 15:13:53;;;;;;;4.50;2.10;;;25.70;98.50;;;;;;5023229;28;20084;-72
2021/05/30 15:16:19;;;;;;;4.40;1.92;;;25.70;99.90;;;;;;5024459;28;20033;-70
2021/05/30 15:18:45;;;;;;;6.00;1.90;;;25.90;99.70;;;;;;5024483;28;20042;-74
2021/05/30 15:21:11;;;;;;;2.10;1.38;;;26.00;97.70;;;;;;5024687;28;20062;-72
2021/05/30 15:23:38;;;;;;;7.88;2.03;;;26.20;99.90;;;;;;5024516;28;20026;-75
2021/05/30 15:26:04;;;;;;;2.15;1.23;;;26.50;98.10;;;;;;5023799;28;20041;-72
2021/05/30 15:28:30;;;;;;;5.43;2.17;;;26.50;98.90;;;;;;5019732;28;20033;-72
2021/05/30 15:30:58;;;;;;;4.10;1.67;;;26.50;99.60;;;;;;5013467;28;20086;-73
2021/05/30 15:33:25;;;;;;;5.20;2.33;;;26.90;99.90;;;;;;5021827;28;20097;-70
2021/05/30 15:36:05;;;;;;;2.95;1.38;;;27.30;97.90;;;;;;5020363;28;20437;-74
2021/05/30 15:38:40;;;;;;;3.58;1.90;;;27.60;97.60;;;;;;5024523;28;20029;-73
2021/05/30 15:41:07;;;;;;;3.08;1.60;;;27.70;94.60;;;;;;5026021;28;20048;-73
2021/05/30 15:43:33;;;;;;;5.00;2.25;;;27.50;95.40;;;;;;5021341;28;20025;-72
2021/05/30 15:46:00;;;;;;;5.97;1.83;;;27.50;94.00;;;;;;5023424;28;20034;-69
2021/05/30 15:48:26;;;;;;;5.05;1.85;;;27.30;95.00;;;;;;5008731;28;20034;-71
2021/05/30 15:53:37;;;;;;;;;;;27.50;94.30;;;;;;5009415;28;20041;-73
2021/05/30 15:56:04;;;;;;;3.00;1.67;;;27.30;91.90;;;;;;5008075;28;19969;-70
2021/05/30 15:58:30;;;;;;;8.55;2.10;;;27.20;93.50;;;;;;5012727;28;20025;-71
2021/05/30 16:00:57;;;;;;;3.75;1.63;;;26.90;94.90;;;;;;5025777;28;20034;-73
2021/05/30 16:03:23;;;;;;;7.15;1.67;;;27.00;94.00;;;;;;5011651;28;20054;-71
2021/05/30 16:05:48;;;;;;;2.30;1.55;;;27.00;94.70;;;;;;5005688;28;20046;-72
2021/05/30 16:08:14;;;;;;;4.50;1.83;;;26.90;95.30;;;;;;5007734;28;20045;-72
2021/05/30 16:10:40;;;;;;;3.78;1.98;;;27.10;94.00;;;;;;5007705;28;20022;-72
2021/05/30 16:13:07;;;;;;;5.18;2.15;;;27.10;94.80;;;;;;5007955;28;20034;-71
2021/05/30 16:15:36;;;;;;;7.70;2.08;;;27.00;94.00;;;;;;5008314;28;20022;-73
2021/05/30 16:18:03;;;;;;;5.45;2.60;;;26.80;94.60;;;;;;5008091;28;20494;-72
2021/05/30 16:20:29;;;;;;;2.95;1.88;;;26.90;96.80;;;;;;5007993;28;20041;-72
2021/05/30 16:22:55;;;;;;;3.53;2.05;;;27.30;97.00;;;;;;5008795;28;20026;-71
2021/05/30 16:25:20;;;;;;;8.02;2.55;;;27.60;94.90;;;;;;5007367;28;20066;-72
2021/05/30 16:27:46;;;;;;;4.05;2.35;;;27.40;95.00;;;;;;5005462;28;20089;-70
2021/05/30 16:30:13;;;;;;;7.38;2.40;;;27.40;95.60;;;;;;5007218;28;20073;-73
2021/05/30 16:32:38;;;;;;;9.23;2.45;;;27.50;96.30;;;;;;5007481;28;20037;-73
2021/05/30 16:35:04;;;;;;;4.55;2.63;;;27.50;96.90;;;;;;5007036;28;20034;-71
2021/05/30 16:37:31;;;;;;;4.50;2.65;;;27.40;94.60;;;;;;5022281;28;20061;-71
2021/05/30 16:39:56;;;;;;;8.50;3.00;;;27.10;96.50;;;;;;5006039;28;20038;-70
2021/05/30 16:42:22;;;;;;;7.80;2.60;;;27.30;95.80;;;;;;5005716;28;20027;-70
2021/05/30 16:44:48;;;;;;;5.28;2.75;;;27.20;96.60;;;;;;5013521;28;20049;-72
2021/05/30 16:47:13;;;;;;;5.55;2.50;;;27.20;95.80;;;;;;5015186;28;20032;-73
2021/05/30 16:49:39;;;;;;;6.78;2.47;;;27.20;95.90;;;;;;5011234;28;20121;-71
2021/05/30 16:52:08;;;;;;;4.88;2.38;;;27.30;95.80;;;;;;5022101;28;20034;-72
2021/05/30 16:54:34;;;;;;;3.83;2.28;;;27.20;94.10;;;;;;5025057;28;20082;-73
2021/05/30 16:57:00;;;;;;;7.53;2.25;;;27.10;95.50;;;;;;5014451;28;20140;-71
2021/05/30 16:59:25;;;;;;;5.07;2.83;;;26.90;95.80;;;;;;5018958;28;20042;-71
2021/05/30 17:01:51;;;;;;;7.05;2.95;;;26.90;95.70;;;;;;5023424;28;20029;-72
2021/05/30 17:04:18;;;;;;;3.17;1.90;;;26.90;95.70;;;;;;5025882;28;20097;-72
2021/05/30 17:06:44;;;;;;;6.93;3.25;;;26.90;95.40;;;;;;5026275;28;20059;-71
2021/05/30 17:09:12;;;;;;;10.85;2.80;;;26.90;94.60;;;;;;5026032;28;20053;-72
2021/05/30 17:11:41;;;;;;;6.82;3.30;;;26.70;96.10;;;;;;5025977;28;20022;-72
2021/05/30 17:14:10;;;;;;;4.90;2.60;;;26.80;96.50;;;;;;5026166;28;20489;-72
2021/05/30 17:16:37;;;;;;;8.57;2.30;;;26.80;96.40;;;;;;5026083;28;20493;-72
2021/05/30 17:19:03;;;;;;;6.35;3.08;;;26.60;96.80;;;;;;5025814;28;20073;-71
2021/05/30 17:21:29;;;;;;;5.05;3.05;;;26.60;96.50;;;;;;5025746;28;20029;-73
2021/05/30 17:23:54;;;;;;;8.48;2.60;;;26.70;97.30;;;;;;5025634;28;20030;-72
2021/05/30 17:26:20;;;;;;;5.03;2.67;;;26.70;97.70;;;;;;5025749;28;20029;-71
2021/05/30 17:28:46;;;;;;;6.43;2.78;;;26.80;97.50;;;;;;5023993;28;20086;-71
2021/05/30 17:31:12;;;;;;;10.13;3.03;;;26.80;97.60;;;;;;5021490;28;20041;-72
2021/05/30 17:33:38;;;;;;;8.68;3.33;;;26.80;97.80;;;;;;5023584;28;20041;-73
2021/05/30 17:36:08;;;;;;;5.85;3.20;;;26.80;97.50;;;;;;5020414;28;20041;-71
2021/05/30 17:38:37;;;;;;;4.85;2.95;;;26.60;97.40;;;;;;5019404;28;20029;-71
2021/05/30 17:41:04;;;;;;;13.40;2.97;;;26.30;97.80;;;;;;5025564;28;20093;-71
2021/05/30 17:43:31;;;;;;;11.07;3.38;;;26.00;98.30;;;;;;5013831;28;20433;-71
2021/05/30 17:45:56;;;;;;;6.82;2.85;;;25.90;98.70;;;;;;5017272;28;20046;-70
2021/05/30 17:48:23;;;;;;;8.35;4.03;;;25.90;98.80;;;;;;5006275;28;20030;-71
2021/05/30 17:50:55;;;;;;;7.35;3.35;;;25.70;98.60;;;;;;5005939;28;20086;-71
2021/05/30 17:53:31;;;;;;;7.30;3.40;;;25.50;99.00;;;;;;5005884;28;20034;-71
2021/05/30 17:55:57;;;;;;;11.98;3.08;;;25.30;99.10;;;;;;5006198;28;20474;-71
2021/05/30 17:58:24;;;;;;;10.38;3.50;;;24.60;99.20;;;;;;5003918;28;20492;-70
2021/05/30 18:00:50;;;;;;;5.32;3.10;;;24.00;99.90;;;;;;5004428;28;20026;-72
2021/05/30 18:03:16;;;;;;;4.22;2.65;;;23.60;99.90;;;;;;5006281;28;20030;-71
2021/05/30 18:05:44;;;;;;;7.28;3.60;;;23.10;99.90;;;;;;5005710;28;20128;-72
2021/05/30 18:08:17;;;;;;;6.82;3.45;;;22.60;99.90;;;;;;5005170;28;20022;-73
2021/05/30 18:10:52;;;;;;;6.50;3.38;;;22.00;99.90;;;;;;5005639;28;20033;-71
2021/05/30 18:13:23;;;;;;;5.57;2.78;;;21.50;99.90;;;;;;5005519;28;20034;-73
2021/05/30 18:15:49;;;;;;;8.52;3.83;;;21.20;99.90;;;;;;5005725;28;20056;-73
2021/05/30 18:18:16;;;;;;;7.55;3.92;;;20.90;99.90;;;;;;5005343;28;20074;-71
2021/05/30 18:20:43;;;;;;;7.82;4.25;;;20.70;99.90;;;;;;5005013;28;20037;-73
2021/05/30 18:23:13;;;;;;;9.43;3.72;;;20.50;99.90;;;;;;5005920;28;20077;-72
2021/05/30 18:25:43;;;;;;;4.90;3.25;;;20.30;99.90;;;;;;5005575;28;20101;-75
2021/05/30 18:28:10;;;;;;;7.35;3.85;;;20.00;99.90;;;;;;5005366;28;20042;-73
2021/05/30 18:30:37;;;;;;;6.90;3.13;;;19.80;99.90;;;;;;5020804;28;20058;-73
2021/05/30 18:33:04;;;;;;;7.55;3.47;;;19.60;99.90;;;;;;5005564;28;20049;-71
2021/05/30 18:35:30;;;;;;;6.32;3.60;;;19.40;99.90;;;;;;5004292;28;20117;-72
2021/05/30 18:37:57;;;;;;;11.25;3.83;;;19.30;99.90;;;;;;5005857;28;20045;-71
2021/05/30 18:40:25;;;;;;;7.80;3.90;;;19.20;99.90;;;;;;5005102;28;20037;-73
2021/05/30 18:42:51;;;;;;;8.32;3.25;;;19.10;99.90;;;;;;5005035;28;20073;-73
2021/05/30 18:45:20;;;;;;;9.88;3.83;;;19.00;99.90;;;;;;5005594;28;20046;-73
2021/05/30 18:47:47;;;;;;;6.47;3.17;;;18.90;99.90;;;;;;5005188;28;20437;-69
2021/05/30 18:50:14;;;;;;;6.10;3.58;;;18.70;99.90;;;;;;5005343;28;20030;-73
2021/05/30 18:52:42;;;;;;;11.45;3.08;;;18.50;99.90;;;;;;5005580;28;20026;-72
2021/05/30 18:55:09;;;;;;;9.30;3.55;;;18.30;99.90;;;;;;5004967;28;20076;-76
2021/05/30 18:57:35;;;;;;;7.35;3.17;;;18.00;99.90;;;;;;5005337;28;20030;-74
2021/05/30 19:00:02;;;;;;;14.95;3.42;;;17.80;99.90;;;;;;5005284;28;20019;-72
2021/05/30 19:02:28;;;;;;;10.88;3.88;;;17.60;99.90;;;;;;5019933;28;20031;-75
2021/05/30 19:04:53;;;;;;;6.93;3.42;;;17.50;99.90;;;;;;5005113;28;20049;-72
2021/05/30 19:07:19;;;;;;;8.73;4.00;;;17.50;99.90;;;;;;5003655;28;20031;-71
2021/05/30 19:09:44;;;;;;;13.07;3.50;;;17.40;99.90;;;;;;5019203;28;20030;-71
2021/05/30 19:12:11;;;;;;;6.82;3.90;;;17.30;99.90;;;;;;5005030;28;20149;-75
2021/05/30 19:14:38;;;;;;;6.45;3.63;;;17.10;99.90;;;;;;5005104;28;20394;-72
2021/05/30 19:17:04;;;;;;;16.63;4.50;;;17.00;99.90;;;;;;5004888;28;20045;-75
2021/05/30 19:19:29;;;;;;;7.43;3.92;;;16.90;99.90;;;;;;5020146;28;20034;-73
2021/05/30 19:21:55;;;;;;;6.50;3.10;;;16.80;99.90;;;;;;5004574;28;20026;-72
2021/05/30 19:24:20;;;;;;;7.93;3.80;;;16.70;99.90;;;;;;5004480;28;20091;-74
2021/05/30 19:26:47;;;;;;;9.40;4.18;;;16.50;99.90;;;;;;5004310;28;20054;-74
2021/05/30 19:29:13;;;;;;;11.20;4.15;;;16.40;99.90;;;;;;5004700;28;20037;-74
2021/05/30 19:31:40;;;;;;;9.65;3.85;;;16.30;99.90;;;;;;5021041;28;20060;-74
2021/05/30 19:34:17;;;;;;;7.25;3.35;;;16.20;99.90;;;;;;5023188;28;20706;-75
2021/05/30 19:36:43;;;;;;;6.80;3.53;;;16.10;99.90;;;;;;5023160;28;20030;-72
2021/05/30 19:39:10;;;;;;;9.05;4.00;;;15.90;99.90;;;;;;5024278;28;20029;-73
2021/05/30 19:41:37;;;;;;;11.27;4.68;;;15.80;99.90;;;;;;5024201;28;20030;-71
2021/05/30 19:44:04;;;;;;;8.93;4.20;;;15.60;99.90;;;;;;5023835;28;20022;-72
2021/05/30 19:46:30;;;;;;;11.70;4.70;;;15.50;99.90;;;;;;5023776;28;20120;-72
2021/05/30 19:48:56;;;;;;;17.85;4.93;;;15.30;99.90;;;;;;5023924;28;20037;-72
2021/05/30 19:51:24;;;;;;;14.00;5.30;;;15.10;99.90;;;;;;5021704;28;20034;-72
2021/05/30 19:53:49;;;;;;;12.13;4.50;;;15.00;99.90;;;;;;5032039;28;20044;-75
2021/05/30 19:56:15;;;;;;;11.15;4.43;;;15.00;99.90;;;;;;5042096;28;20052;-74
2021/05/30 19:58:41;;;;;;;11.23;4.40;;;14.90;99.90;;;;;;5016884;28;20027;-75
2021/05/30 20:01:07;;;;;;;11.13;5.60;;;14.80;99.90;;;;;;5009043;28;20030;-74
2021/05/30 20:03:37;;;;;;;11.18;4.60;;;14.80;99.90;;;;;;5018745;28;20041;-74
2021/05/30 20:06:04;;;;;;;11.95;4.93;;;14.80;99.90;;;;;;5018067;28;20104;-71
2021/05/30 20:08:31;;;;;;;11.43;4.85;;;14.70;99.90;;;;;;5019809;28;20057;-73
2021/05/30 20:10:57;;;;;;;10.68;5.53;;;14.60;99.90;;;;;;5004412;28;20061;-73
2021/05/30 20:13:23;;;;;;;15.48;4.47;;;14.50;99.90;;;;;;5003581;28;20062;-73
2021/05/30 20:15:49;;;;;;;18.10;5.53;;;14.40;99.90;;;;;;5004349;28;20026;-74
2021/05/30 20:18:14;;;;;;;11.15;4.63;;;14.30;99.90;;;;;;5009033;28;20025;-73
2021/05/30 20:20:40;;;;;;;10.98;5.30;;;14.30;99.90;;;;;;5010448;28;20411;-74
2021/05/30 20:23:06;;;;;;;12.98;4.75;;;14.20;99.90;;;;;;5023059;28;20036;-73
2021/05/30 20:25:55;;;;;;;7.70;4.53;;;14.10;99.90;;;;;;5021046;28;20038;-74
2021/05/30 20:28:23;;;;;;;10.65;4.57;;;14.00;99.90;;;;;;5006600;28;20082;-73
2021/05/30 20:30:51;;;;;;;8.68;4.32;;;14.00;99.90;;;;;;5007641;28;20086;-75
2021/05/30 20:33:17;;;;;;;17.98;5.90;;;14.00;99.90;;;;;;5020620;28;20088;-73
2021/05/30 20:35:43;;;;;;;14.90;5.63;;;13.90;99.90;;;;;;5026977;28;20026;-73
2021/05/30 20:38:09;;;;;;;17.05;5.90;;;13.90;99.90;;;;;;5025870;28;20029;-73
2021/05/30 20:40:36;;;;;;;9.77;4.88;;;13.90;99.90;;;;;;5027522;28;20026;-74
2021/05/30 20:43:03;;;;;;;9.60;5.22;;;14.00;99.90;;;;;;5026118;28;20229;-74
2021/05/30 20:45:30;;;;;;;12.10;5.78;;;13.90;99.90;;;;;;5027192;28;20424;-75
2021/05/30 20:47:56;;;;;;;14.27;5.80;;;13.90;99.90;;;;;;5025898;28;20033;-73
2021/05/30 20:50:22;;;;;;;23.17;6.25;;;13.80;99.90;;;;;;5027522;28;20026;-72
2021/05/30 20:52:48;;;;;;;11.23;6.15;;;13.70;99.90;;;;;;5026812;28;20041;-73
2021/05/30 20:55:15;;;;;;;9.57;5.38;;;13.60;99.90;;;;;;5026062;28;20062;-73
2021/05/30 20:57:41;;;;;;;14.18;6.55;;;13.50;99.90;;;;;;5027019;28;20093;-72
2021/05/30 21:00:11;;;;;;;17.80;6.18;;;13.50;99.90;;;;;;5026924;28;20033;-73
2021/05/30 21:02:39;;;;;;;14.93;6.50;;;13.50;99.90;;;;;;5027215;28;20030;-73
2021/05/30 21:05:05;;;;;;;13.73;6.72;;;13.40;99.90;;;;;;5027347;28;20038;-72
2021/05/30 21:07:32;;;;;;;11.18;5.75;;;13.40;99.90;;;;;;5026473;28;20049;-73
2021/05/30 21:09:57;;;;;;;17.02;6.32;;;13.30;99.90;;;;;;5026946;28;20034;-73
2021/05/30 21:12:23;;;;;;;9.65;5.90;;;13.20;99.90;;;;;;5026614;28;20038;-73
2021/05/30 21:14:49;;;;;;;18.92;6.53;;;13.20;99.90;;;;;;5025420;28;20037;-73
2021/05/30 21:17:15;;;;;;;11.20;5.68;;;13.30;99.90;;;;;;5025705;28;20481;-73
2021/05/30 21:19:41;;;;;;;14.10;6.13;;;13.30;99.90;;;;;;5025081;28;20037;-73
2021/05/30 21:22:07;;;;;;;14.15;6.10;;;13.20;99.90;;;;;;5026897;28;20026;-72
2021/05/30 21:24:33;;;;;;;14.60;7.18;;;13.20;99.90;;;;;;5026553;28;20039;-72
2021/05/30 21:27:00;;;;;;;13.73;6.75;;;13.10;99.90;;;;;;5025867;28;20474;-72
2021/05/30 21:29:26;;;;;;;14.13;6.53;;;13.10;99.90;;;;;;5026493;28;20026;-72